Seiyu Maru — JD3189 — position and weather

sailwx.info

Track history (hours):
 
Tides and Currents Weather Stations Pressure Air Temp Water Temp Dewpoint Dewpoint Depression Visibility Wind Speed Wind Dir Waves Ship Positions

Seiyu Maru

Last reported at 2014-Nov-25 09:28 UTC. Time now 2014-Nov-28 04:11 UTC.
Position N 34°01' E 135°00'.

Length 75 m; draft 4.5 m.

Type: Cargo ship. MMSI: 431002433.

Date/timePositionNaut miles runAvg speedWind from/ knotsBaromVisibWave heightAir tempDewpointWater temp
2014-Nov-25 09:28N 34°01' E 135°00'1112.2
2014-Nov-25 08:33N 34°12' E 135°02'1312.8
2014-Nov-25 07:31N 34°24' E 135°09'1212.2
2014-Nov-25 06:33N 34°32' E 135°20'3 3.3
2014-Nov-25 05:33N 34°31' E 135°24'0 0.0
2014-Nov-25 04:24N 34°31' E 135°24'0 0.0
2014-Nov-25 03:28N 34°31' E 135°24'0 0.0
2014-Nov-24 04:33N 34°31' E 135°24'1010.0
2014-Nov-24 03:33N 34°34' E 135°12'1211.1
2014-Nov-24 02:31N 34°37' E 134°58'  
2014-Nov-19 18:16N 35°16' E 139°46'810.7
2014-Nov-19 17:33N 35°24' E 139°43'7 7.1
2014-Nov-19 16:34N 35°22' E 139°51'0 0.0
2014-Nov-19 15:33N 35°22' E 139°51'0 0.0
2014-Nov-19 14:16N 35°22' E 139°51'0 0.0
2014-Nov-19 13:28N 35°22' E 139°51'0 0.0
2014-Nov-19 12:13N 35°22' E 139°51'0 0.0
2014-Nov-19 11:19N 35°22' E 139°51'0 0.2
2014-Nov-19 09:05N 35°21' E 139°51'0 0.1
2014-Nov-19 08:26N 35°21' E 139°51'0 0.1
2014-Nov-19 07:29N 35°21' E 139°51'0 0.1
2014-Nov-19 06:32N 35°21' E 139°51'0 0.0
2014-Nov-19 05:23N 35°21' E 139°51'0 0.0
2014-Nov-19 04:23N 35°21' E 139°51'0 0.0
2014-Nov-19 03:32N 35°21' E 139°51'0 0.0
2014-Nov-19 02:14N 35°21' E 139°51'0 0.0
2014-Nov-19 01:32N 35°21' E 139°51'0 0.0
2014-Nov-19 00:32N 35°21' E 139°51'0 0.1
2014-Nov-18 23:34N 35°21' E 139°51'17 0.7
2014-Nov-17 23:06N 35°37' E 139°58'5 9.1
2014-Nov-17 22:32N 35°36' E 139°52'1 0.1
2014-Nov-17 02:31N 35°36' E 139°51'6 0.4
2014-Nov-16 09:30N 35°30' E 139°54'1111.1
2014-Nov-16 08:33N 35°22' E 139°45'  
Track history (hours):
 
Tides and Currents Weather Stations Pressure Air Temp Water Temp Dewpoint Dewpoint Depression Visibility Wind Speed Wind Dir Waves Ship Positions

Seiyu Maru

Last reported at 2014-Nov-25 09:28 UTC. Time now 2014-Nov-28 04:11 UTC.
Position N 34°01' E 135°00'.

Length 75 m; draft 4.5 m.

Type: Cargo ship. MMSI: 431002433.

Date/timePositionNaut miles runAvg speedWind from/ knotsBaromVisibWave heightAir tempDewpointWater temp
2014-Nov-25 09:28N 34°01' E 135°00'1112.2
2014-Nov-25 08:33N 34°12' E 135°02'1312.8
2014-Nov-25 07:31N 34°24' E 135°09'1212.2
2014-Nov-25 06:33N 34°32' E 135°20'3 3.3
2014-Nov-25 05:33N 34°31' E 135°24'0 0.0
2014-Nov-25 04:24N 34°31' E 135°24'0 0.0
2014-Nov-25 03:28N 34°31' E 135°24'0 0.0
2014-Nov-24 04:33N 34°31' E 135°24'1010.0
2014-Nov-24 03:33N 34°34' E 135°12'1211.1
2014-Nov-24 02:31N 34°37' E 134°58'  
2014-Nov-19 18:16N 35°16' E 139°46'810.7
2014-Nov-19 17:33N 35°24' E 139°43'7 7.1
2014-Nov-19 16:34N 35°22' E 139°51'0 0.0
2014-Nov-19 15:33N 35°22' E 139°51'0 0.0
2014-Nov-19 14:16N 35°22' E 139°51'0 0.0
2014-Nov-19 13:28N 35°22' E 139°51'0 0.0
2014-Nov-19 12:13N 35°22' E 139°51'0 0.0
2014-Nov-19 11:19N 35°22' E 139°51'0 0.2
2014-Nov-19 09:05N 35°21' E 139°51'0 0.1
2014-Nov-19 08:26N 35°21' E 139°51'0 0.1
2014-Nov-19 07:29N 35°21' E 139°51'0 0.1
2014-Nov-19 06:32N 35°21' E 139°51'0 0.0
2014-Nov-19 05:23N 35°21' E 139°51'0 0.0
2014-Nov-19 04:23N 35°21' E 139°51'0 0.0
2014-Nov-19 03:32N 35°21' E 139°51'0 0.0
2014-Nov-19 02:14N 35°21' E 139°51'0 0.0
2014-Nov-19 01:32N 35°21' E 139°51'0 0.0
2014-Nov-19 00:32N 35°21' E 139°51'0 0.1
2014-Nov-18 23:34N 35°21' E 139°51'17 0.7
2014-Nov-17 23:06N 35°37' E 139°58'5 9.1
2014-Nov-17 22:32N 35°36' E 139°52'1 0.1
2014-Nov-17 02:31N 35°36' E 139°51'6 0.4
2014-Nov-16 09:30N 35°30' E 139°54'1111.1
2014-Nov-16 08:33N 35°22' E 139°45'  

Dump ship's entire track history